Time;durP1;ratioP1;P1;durP2;ratioP2;P2;SDS_P1;SDS_P2;PMS_P1;PMS_P2;Temp;Humidity;BMP_temperature;BMP_pressure;BME280_temperature;BME280_humidity;BME280_pressure;Samples;Min_cycle;Max_cycle;Signal;HPM_P1;HPM_P2
2021/07/24 00:01:27;;;;;;;0.05;0.05;;;;;;;19.46;52.43;98937.66;5030063;28;20037;-78
2021/07/24 00:03:53;;;;;;;0.10;0.10;;;;;;;19.42;52.72;98932.09;5031677;28;20038;-78
2021/07/24 00:06:18;;;;;;;0.10;0.10;;;;;;;19.45;52.76;98925.22;5029831;28;20484;-78
2021/07/24 00:08:44;;;;;;;0.80;0.80;;;;;;;19.47;52.58;98923.75;5030166;28;20034;-79
2021/07/24 00:11:10;;;;;;;0.00;0.00;;;;;;;19.52;52.30;98920.81;5030192;28;20044;-79
2021/07/24 00:13:37;;;;;;;0.80;0.60;;;;;;;19.60;52.64;98915.59;5030057;28;20021;-79
2021/07/24 00:16:03;;;;;;;0.10;0.10;;;;;;;19.67;52.63;98913.13;5029978;28;20112;-79
2021/07/24 00:18:29;;;;;;;0.20;0.20;;;;;;;19.75;52.29;98912.22;5029717;28;20505;-78
2021/07/24 00:20:55;;;;;;;0.05;0.05;;;;;;;19.81;52.53;98915.47;5030169;28;20470;-79
2021/07/24 00:23:20;;;;;;;0.10;0.10;;;;;;;19.88;51.97;98913.00;5029840;28;20056;-79
2021/07/24 00:25:46;;;;;;;0.10;0.10;;;;;;;19.97;52.18;98910.97;5029395;28;20063;-79
2021/07/24 00:28:11;;;;;;;0.10;0.10;;;;;;;20.01;52.22;98919.22;5029890;28;20033;-79
2021/07/24 00:30:39;;;;;;;0.10;0.10;;;;;;;20.07;52.41;98914.34;5030031;28;20485;-79
2021/07/24 00:33:06;;;;;;;0.10;0.10;;;;;;;20.10;52.48;98911.75;5029836;28;20481;-78
2021/07/24 00:35:32;;;;;;;0.10;0.10;;;;;;;20.15;52.11;98908.78;5031061;28;20408;-78
2021/07/24 00:37:58;;;;;;;0.10;0.10;;;;;;;20.19;52.30;98906.19;5033692;28;20028;-79
2021/07/24 00:40:25;;;;;;;0.00;0.00;;;;;;;20.21;52.73;98912.03;5033334;28;20120;-79
2021/07/24 00:42:53;;;;;;;0.10;0.10;;;;;;;20.21;52.64;98906.59;5033731;28;20496;-79
2021/07/24 00:45:20;;;;;;;0.10;0.10;;;;;;;20.26;52.65;98913.72;5033274;28;20033;-79
2021/07/24 00:47:50;;;;;;;0.10;0.10;;;;;;;20.26;52.58;98913.72;5033774;28;20036;-80
2021/07/24 00:50:16;;;;;;;0.00;0.00;;;;;;;20.26;52.79;98914.53;5033508;28;20033;-79
2021/07/24 00:52:43;;;;;;;0.00;0.00;;;;;;;20.26;52.61;98914.53;5033663;28;20032;-79
2021/07/24 00:55:11;;;;;;;0.10;0.10;;;;;;;20.29;51.22;98915.75;5033633;28;20436;-79
2021/07/24 00:57:41;;;;;;;0.00;0.00;;;;;;;20.27;50.77;98918.03;5033055;28;20551;-79
2021/07/24 01:00:07;;;;;;;0.08;0.08;;;;;;;20.24;50.07;98907.88;5033250;28;20064;-79
2021/07/24 01:02:33;;;;;;;0.00;0.00;;;;;;;20.24;49.73;98918.72;5033018;28;20120;-79
2021/07/24 01:05:01;;;;;;;0.20;0.20;;;;;;;20.19;49.77;98913.50;5033300;28;20240;-79
2021/07/24 01:07:26;;;;;;;0.00;0.00;;;;;;;20.16;49.75;98915.00;5033109;28;20072;-79
2021/07/24 01:09:52;;;;;;;0.00;0.00;;;;;;;20.10;49.58;98911.75;5033019;28;20488;-79
2021/07/24 01:12:18;;;;;;;0.00;0.00;;;;;;;20.08;49.81;98913.19;5032805;28;20469;-79
2021/07/24 01:14:43;;;;;;;0.00;0.00;;;;;;;20.05;49.86;98913.91;5033083;28;20471;-79
2021/07/24 01:17:09;;;;;;;0.10;0.10;;;;;;;20.00;50.12;98915.69;5033145;28;20057;-79
2021/07/24 01:19:34;;;;;;;0.10;0.10;;;;;;;19.93;50.07;98912.78;5032791;28;20123;-79
2021/07/24 01:22:00;;;;;;;0.05;0.05;;;;;;;19.87;50.18;98907.94;5033157;28;20689;-79
2021/07/24 01:24:25;;;;;;;0.10;0.10;;;;;;;19.81;50.34;98913.56;5032413;28;20078;-79
2021/07/24 01:26:51;;;;;;;0.10;0.10;;;;;;;19.77;50.36;98906.44;5033334;28;20041;-79
2021/07/24 01:29:20;;;;;;;0.00;0.00;;;;;;;19.68;50.52;98907.34;5033878;28;20163;-79
2021/07/24 01:31:45;;;;;;;0.10;0.10;;;;;;;19.63;51.08;98904.88;5032840;28;20028;-79
2021/07/24 01:34:10;;;;;;;0.08;0.08;;;;;;;19.57;51.43;98906.22;5033210;28;20033;-79
2021/07/24 01:36:37;;;;;;;0.13;0.13;;;;;;;19.54;51.45;98897.97;5032616;28;20560;-79
2021/07/24 01:39:02;;;;;;;0.00;0.00;;;;;;;19.48;51.50;98900.94;5032673;28;20033;-79
2021/07/24 01:41:28;;;;;;;0.10;0.10;;;;;;;19.45;51.49;98898.88;5032309;28;20462;-79
2021/07/24 01:43:54;;;;;;;0.22;0.22;;;;;;;19.46;51.53;98897.75;5032345;28;20040;-80
2021/07/24 01:46:19;;;;;;;0.10;0.10;;;;;;;19.43;51.63;98895.72;5031504;28;20416;-80
2021/07/24 01:49:05;;;;;;;0.10;0.10;;;;;;;19.39;51.52;98889.38;5031960;28;20028;-80
2021/07/24 01:54:42;;;;;;;0.10;0.10;;;;;;;19.33;51.62;98896.97;5033590;28;20037;-80
2021/07/24 01:57:09;;;;;;;0.10;0.10;;;;;;;19.29;51.85;98890.63;5032944;28;20397;-80
2021/07/24 01:59:42;;;;;;;0.10;0.10;;;;;;;19.26;51.72;98890.50;5032409;28;20116;-80
2021/07/24 02:02:09;;;;;;;0.00;0.00;;;;;;;19.22;51.71;98895.03;5032236;28;20052;-80
2021/07/24 02:04:39;;;;;;;0.20;0.20;;;;;;;19.19;51.66;98891.88;5032116;28;20033;-80
2021/07/24 02:07:09;;;;;;;0.10;0.10;;;;;;;19.13;51.81;98893.22;5032201;28;20526;-80
2021/07/24 02:09:35;;;;;;;0.10;0.10;;;;;;;19.10;51.77;98896.56;5031747;28;20025;-80
2021/07/24 02:12:02;;;;;;;0.10;0.10;;;;;;;19.03;51.99;98905.28;5031993;28;20479;-80
2021/07/24 02:14:28;;;;;;;0.10;0.10;;;;;;;18.98;52.23;98896.56;5031689;28;20035;-80
2021/07/24 02:16:53;;;;;;;0.10;0.10;;;;;;;18.94;52.20;98903.78;5031954;28;20037;-79
2021/07/24 02:19:19;;;;;;;0.10;0.10;;;;;;;18.90;52.60;98903.63;5031904;28;20025;-79
2021/07/24 02:21:44;;;;;;;0.00;0.00;;;;;;;18.88;52.59;98901.28;5031730;28;20484;-80
2021/07/24 02:24:10;;;;;;;0.10;0.10;;;;;;;18.88;52.76;98906.69;5031667;28;20476;-80
2021/07/24 02:26:41;;;;;;;0.10;0.10;;;;;;;18.85;52.56;98898.44;5031205;28;20132;-80
2021/07/24 02:29:07;;;;;;;0.10;0.10;;;;;;;18.82;53.00;98905.31;5031806;28;20151;-80
2021/07/24 02:31:32;;;;;;;0.10;0.10;;;;;;;18.79;52.81;98900.56;5031611;28;20464;-80
2021/07/24 02:33:59;;;;;;;0.10;0.10;;;;;;;18.76;52.99;98900.44;5031581;28;20029;-80
2021/07/24 02:36:25;;;;;;;0.00;0.00;;;;;;;18.69;53.08;98890.94;5031250;28;20086;-80
2021/07/24 02:38:50;;;;;;;0.20;0.20;;;;;;;18.67;53.10;98893.19;5031352;28;20081;-80
2021/07/24 02:41:15;;;;;;;0.03;0.03;;;;;;;18.60;53.16;98892.94;5031556;28;20025;-80
2021/07/24 02:43:41;;;;;;;0.10;0.10;;;;;;;18.58;53.30;98902.50;5031220;28;20030;-80
2021/07/24 02:46:06;;;;;;;0.05;0.05;;;;;;;18.53;53.91;98898.13;5031130;28;20091;-80
2021/07/24 02:48:32;;;;;;;0.00;0.00;;;;;;;18.49;53.90;98906.13;5031216;28;20033;-80
2021/07/24 02:50:57;;;;;;;0.00;0.00;;;;;;;18.46;53.63;98893.22;5031431;28;20025;-80
2021/07/24 02:53:22;;;;;;;0.10;0.10;;;;;;;18.46;54.13;98908.69;5031019;28;20017;-80
2021/07/24 02:55:48;;;;;;;0.30;0.30;;;;;;;18.45;54.06;98910.59;5031295;28;20025;-80
2021/07/24 02:58:13;;;;;;;0.10;0.10;;;;;;;18.44;54.34;98909.00;5030880;28;20043;-80
2021/07/24 03:00:39;;;;;;;0.10;0.10;;;;;;;18.42;54.20;98910.47;5030723;28;20025;-80
2021/07/24 03:03:04;;;;;;;0.00;0.00;;;;;;;18.45;54.21;98910.59;5031230;28;20041;-80
2021/07/24 03:05:29;;;;;;;0.10;0.10;;;;;;;18.46;54.47;98909.47;5031045;28;20030;-80
2021/07/24 03:07:55;;;;;;;0.10;0.10;;;;;;;18.49;54.23;98910.72;5030971;28;20029;-80
2021/07/24 03:10:20;;;;;;;0.10;0.10;;;;;;;18.51;54.33;98911.97;5030899;28;20048;-80
2021/07/24 03:12:46;;;;;;;0.10;0.10;;;;;;;18.53;54.49;98909.72;5030848;28;20030;-80
2021/07/24 03:15:11;;;;;;;0.05;0.05;;;;;;;18.55;54.34;98896.66;5031585;28;20488;-80
2021/07/24 03:17:36;;;;;;;0.10;0.10;;;;;;;18.60;54.16;98914.59;5030848;28;20031;-80
2021/07/24 03:20:05;;;;;;;0.05;0.05;;;;;;;18.68;53.82;98908.31;5030777;28;20029;-80
2021/07/24 03:22:30;;;;;;;0.10;0.10;;;;;;;18.77;53.52;98908.22;5030811;28;20549;-80
2021/07/24 03:24:56;;;;;;;0.10;0.10;;;;;;;18.91;53.29;98907.13;5030942;28;20053;-80
2021/07/24 03:27:22;;;;;;;0.10;0.10;;;;;;;19.05;52.92;98902.22;5032131;28;20026;-80
2021/07/24 03:29:48;;;;;;;2.05;0.47;;;;;;;19.24;52.51;98904.41;5030683;28;20416;-80
2021/07/24 03:32:13;;;;;;;0.10;0.10;;;;;;;19.46;51.99;98903.19;5030502;28;20021;-80
2021/07/24 03:34:38;;;;;;;0.10;0.10;;;;;;;19.70;51.41;98903.50;5030097;28;20057;-80
2021/07/24 03:37:04;;;;;;;0.20;0.20;;;;;;;19.93;51.40;98901.13;5030361;28;20530;-80
2021/07/24 03:39:29;;;;;;;0.10;0.10;;;;;;;20.20;50.64;98891.47;5030317;28;20033;-80
2021/07/24 03:41:55;;;;;;;0.10;0.10;;;;;;;20.50;49.97;98901.97;5030301;28;20036;-80
2021/07/24 03:44:20;;;;;;;0.10;0.10;;;;;;;20.80;48.78;98901.66;5030414;28;20079;-80
2021/07/24 03:46:45;;;;;;;0.20;0.20;;;;;;;21.10;48.10;98901.25;5030557;28;20040;-80
2021/07/24 03:49:11;;;;;;;0.10;0.10;;;;;;;21.39;47.53;98912.84;5031761;28;20083;-81
2021/07/24 03:51:38;;;;;;;0.20;0.20;;;;;;;21.70;46.72;98909.31;5029966;28;20033;-81
2021/07/24 03:54:03;;;;;;;0.10;0.10;;;;;;;22.06;45.83;98917.50;5030327;28;20036;-81
2021/07/24 03:56:29;;;;;;;0.20;0.20;;;;;;;22.36;45.36;98912.28;5029937;28;20026;-81
2021/07/24 03:58:54;;;;;;;0.20;0.20;;;;;;;22.73;44.40;98910.25;5030235;28;20116;-81
2021/07/24 04:01:22;;;;;;;0.00;0.00;;;;;;;23.10;43.59;98917.94;5030379;28;20063;-81
2021/07/24 04:03:47;;;;;;;0.10;0.10;;;;;;;23.42;42.91;98912.25;5029996;28;20033;-80
2021/07/24 04:06:20;;;;;;;0.10;0.10;;;;;;;23.77;42.13;98908.50;5030110;28;20034;-81
2021/07/24 04:08:45;;;;;;;0.08;0.08;;;;;;;24.14;41.49;98911.38;5029597;28;20037;-81
2021/07/24 04:11:10;;;;;;;0.00;0.00;;;;;;;24.52;40.84;98913.38;5032795;28;20084;-81
2021/07/24 04:13:37;;;;;;;0.10;0.10;;;;;;;24.86;40.16;98916.88;5033836;28;20030;-81
2021/07/24 04:16:02;;;;;;;0.10;0.10;;;;;;;25.17;39.56;98922.25;5034534;28;20471;-81
2021/07/24 04:18:31;;;;;;;0.10;0.10;;;;;;;25.47;38.82;98913.91;5034048;28;20025;-81
2021/07/24 04:20:58;;;;;;;0.10;0.10;;;;;;;25.76;38.33;98919.59;5034021;28;20029;-80
2021/07/24 04:23:24;;;;;;;0.10;0.10;;;;;;;26.05;37.65;98911.56;5034284;28;20029;-80
2021/07/24 04:25:49;;;;;;;0.08;0.08;;;;;;;26.32;37.30;98914.06;5033763;28;20056;-81
2021/07/24 04:28:14;;;;;;;0.00;0.00;;;;;;;26.59;36.81;98911.00;5034980;28;20519;-79
2021/07/24 04:30:40;;;;;;;0.00;0.00;;;;;;;26.83;36.25;98915.00;5033934;28;20490;-80
2021/07/24 04:33:05;;;;;;;0.15;0.15;;;;;;;27.10;36.22;98920.91;5034533;28;20140;-80
2021/07/24 04:35:31;;;;;;;0.32;0.32;;;;;;;27.36;36.05;98913.47;5033904;28;20477;-80
2021/07/24 04:37:56;;;;;;;0.00;0.00;;;;;;;27.67;35.44;98919.34;5033615;28;20025;-80
2021/07/24 04:40:22;;;;;;;0.05;0.05;;;;;;;27.92;35.04;98910.28;5035192;28;20032;-80
2021/07/24 04:42:47;;;;;;;0.17;0.17;;;;;;;28.18;35.00;98913.75;5034221;28;20026;-80
2021/07/24 04:45:12;;;;;;;0.00;0.00;;;;;;;28.45;34.32;98919.53;5034281;28;20084;-80
2021/07/24 04:47:38;;;;;;;0.10;0.10;;;;;;;28.75;34.15;98915.47;5033309;28;20021;-80
2021/07/24 04:50:04;;;;;;;0.28;0.28;;;;;;;29.04;33.70;98918.00;5033403;28;20034;-80
2021/07/24 04:52:30;;;;;;;0.00;0.00;;;;;;;29.31;33.29;98906.44;5033143;28;20022;-81
2021/07/24 04:54:59;;;;;;;0.15;0.15;;;;;;;29.57;33.05;98912.50;5033144;28;20520;-81
2021/07/24 04:57:27;;;;;;;0.00;0.00;;;;;;;29.88;32.37;98910.59;5033195;28;20499;-81
2021/07/24 04:59:53;;;;;;;0.00;0.00;;;;;;;30.16;32.56;98912.28;5033021;28;20025;-81
2021/07/24 05:02:19;;;;;;;0.00;0.00;;;;;;;30.44;31.98;98912.34;5032908;28;20466;-81
2021/07/24 05:04:47;;;;;;;0.00;0.00;;;;;;;30.70;31.99;98916.34;5032748;28;20030;-81
2021/07/24 05:07:13;;;;;;;0.00;0.00;;;;;;;30.97;31.48;98908.06;5032937;28;20211;-81
2021/07/24 05:09:40;;;;;;;0.10;0.10;;;;;;;31.20;31.09;98903.78;5032832;28;20037;-80
2021/07/24 05:12:06;;;;;;;0.03;0.03;;;;;;;31.39;31.25;98909.78;5034156;28;20025;-80
2021/07/24 05:14:32;;;;;;;0.10;0.10;;;;;;;31.59;30.89;98910.59;5032948;28;20088;-81
2021/07/24 05:17:09;;;;;;;0.10;0.10;;;;;;;31.77;30.77;98913.06;5032916;28;20512;-80
2021/07/24 05:19:39;;;;;;;0.00;0.00;;;;;;;31.91;30.64;98914.78;5032456;28;20120;-81
2021/07/24 05:22:05;;;;;;;0.00;0.00;;;;;;;32.05;31.14;98918.47;5032957;28;20191;-81
2021/07/24 05:24:35;;;;;;;0.47;0.47;;;;;;;32.21;30.69;98920.53;5032640;28;20032;-81
2021/07/24 05:27:01;;;;;;;1.23;1.05;;;;;;;32.35;30.68;98911.94;5032556;28;20033;-81
2021/07/24 05:29:27;;;;;;;0.00;0.00;;;;;;;32.53;30.52;98911.56;5033745;28;20025;-81
2021/07/24 05:31:53;;;;;;;0.05;0.05;;;;;;;32.60;30.54;98916.16;5032634;28;20374;-81
2021/07/24 05:34:18;;;;;;;0.10;0.10;;;;;;;32.63;30.30;98908.97;5032577;28;20123;-81
2021/07/24 05:36:44;;;;;;;0.05;0.05;;;;;;;32.68;30.26;98916.78;5032434;28;20049;-81
2021/07/24 05:39:09;;;;;;;0.10;0.10;;;;;;;32.43;30.71;98911.78;5032251;28;20060;-81
2021/07/24 05:41:35;;;;;;;0.00;0.00;;;;;;;32.22;30.67;98917.34;5032213;28;20021;-80
2021/07/24 05:44:00;;;;;;;0.20;0.20;;;;;;;32.11;30.75;98914.00;5032390;28;20401;-80
2021/07/24 05:46:26;;;;;;;0.10;0.10;;;;;;;32.01;31.45;98917.78;5032463;28;20473;-81
2021/07/24 05:48:51;;;;;;;0.13;0.13;;;;;;;31.87;31.32;98916.84;5032198;28;20087;-80
2021/07/24 05:51:17;;;;;;;0.00;0.00;;;;;;;31.69;31.79;98917.16;5032259;28;20116;-80
2021/07/24 05:53:42;;;;;;;0.10;0.10;;;;;;;31.71;31.80;98911.22;5031923;28;20037;-80
2021/07/24 05:56:07;;;;;;;0.00;0.00;;;;;;;31.52;31.95;98918.22;5032452;28;20025;-82
2021/07/24 05:58:33;;;;;;;0.00;0.00;;;;;;;31.48;32.33;98914.75;5033616;28;20037;-81
2021/07/24 06:00:58;;;;;;;0.20;0.20;;;;;;;31.48;32.09;98910.00;5032151;28;20026;-81
2021/07/24 06:03:24;;;;;;;0.10;0.10;;;;;;;31.30;32.05;98915.84;5031511;28;20033;-80
2021/07/24 06:05:49;;;;;;;0.82;0.68;;;;;;;31.21;32.41;98915.59;5031673;28;20382;-82
2021/07/24 06:08:15;;;;;;;0.15;0.15;;;;;;;31.33;32.29;98919.75;5033232;28;20060;-81
2021/07/24 06:10:40;;;;;;;0.00;0.00;;;;;;;31.30;31.81;98921.38;5031380;28;20021;-82
2021/07/24 06:13:05;;;;;;;0.10;0.10;;;;;;;31.41;31.99;98910.16;5031276;28;20041;-82
2021/07/24 06:15:31;;;;;;;0.10;0.10;;;;;;;31.55;31.50;98912.63;5031586;28;20031;-82
2021/07/24 06:17:57;;;;;;;0.15;0.15;;;;;;;31.55;31.68;98914.63;5031011;28;20164;-82
2021/07/24 06:20:23;;;;;;;0.00;0.00;;;;;;;31.47;31.06;98911.22;5031570;28;20128;-81
2021/07/24 06:22:48;;;;;;;0.10;0.10;;;;;;;31.53;31.72;98911.50;5031269;28;20151;-81
2021/07/24 06:25:14;;;;;;;0.22;0.03;;;;;;;31.50;31.36;98912.38;5031218;28;20068;-82
2021/07/24 06:27:40;;;;;;;0.90;0.13;;;;;;;31.52;31.74;98909.94;5031105;28;20061;-81
2021/07/24 06:30:07;;;;;;;0.10;0.10;;;;;;;31.52;31.42;98907.97;5031431;28;20465;-82
2021/07/24 06:32:32;;;;;;;0.10;0.10;;;;;;;31.42;31.72;98912.50;5030827;28;20487;-84
2021/07/24 06:34:58;;;;;;;0.00;0.00;;;;;;;31.31;31.97;98914.66;5030950;28;20026;-82
2021/07/24 06:37:23;;;;;;;0.00;0.00;;;;;;;31.34;31.53;98907.50;5031122;28;20028;-81
2021/07/24 06:39:48;;;;;;;0.20;0.20;;;;;;;31.07;31.21;98903.56;5030558;28;20029;-81
2021/07/24 06:42:14;;;;;;;0.25;0.25;;;;;;;30.72;32.13;98922.22;5031091;28;20424;-81
2021/07/24 06:44:39;;;;;;;1.40;1.05;;;;;;;30.46;32.58;98913.47;5030789;28;20026;-83
2021/07/24 06:47:05;;;;;;;0.25;0.20;;;;;;;30.19;32.88;98913.44;5030958;28;20116;-81
2021/07/24 06:49:30;;;;;;;2.42;0.70;;;;;;;29.88;32.49;98910.59;5031021;28;20411;-83
2021/07/24 06:51:56;;;;;;;0.22;0.22;;;;;;;29.42;33.42;98912.66;5030523;28;20029;-81
2021/07/24 06:54:21;;;;;;;0.20;0.20;;;;;;;29.07;34.40;98912.47;5030845;28;20095;-80
2021/07/24 06:56:47;;;;;;;0.10;0.10;;;;;;;28.87;34.56;98912.25;5031222;28;20029;-81
2021/07/24 06:59:12;;;;;;;0.47;0.47;;;;;;;28.69;35.22;98911.59;5032715;28;20454;-80
2021/07/24 07:01:38;;;;;;;0.25;0.25;;;;;;;28.49;35.05;98914.81;5031678;28;20075;-84
2021/07/24 07:04:06;;;;;;;1.05;0.50;;;;;;;28.33;36.21;98914.47;5030646;28;20034;-79
2021/07/24 07:06:32;;;;;;;0.35;0.35;;;;;;;28.26;36.32;98905.06;5030699;28;20033;-81
2021/07/24 07:08:58;;;;;;;0.38;0.38;;;;;;;28.24;36.60;98907.44;5030385;28;20451;-81
2021/07/24 07:11:24;;;;;;;0.13;0.13;;;;;;;28.25;37.01;98913.72;5030605;28;20021;-81
2021/07/24 07:13:49;;;;;;;4.18;0.30;;;;;;;28.19;35.85;98904.34;5030370;28;20485;-81
2021/07/24 07:16:15;;;;;;;0.20;0.20;;;;;;;28.12;36.04;98916.13;5030395;28;20032;-80
2021/07/24 07:18:40;;;;;;;0.63;0.47;;;;;;;28.14;36.46;98918.47;5030052;28;20066;-83
2021/07/24 07:21:08;;;;;;;0.25;0.25;;;;;;;28.00;35.13;98911.81;5030365;28;20021;-81
2021/07/24 07:23:34;;;;;;;2.45;0.52;;;;;;;27.91;36.07;98919.69;5030309;28;20035;-80
2021/07/24 07:26:01;;;;;;;0.22;0.22;;;;;;;27.94;36.65;98911.44;5029837;28;20144;-80
2021/07/24 07:28:26;;;;;;;0.30;0.30;;;;;;;27.84;35.57;98906.75;5030375;28;20322;-79
2021/07/24 07:30:51;;;;;;;0.85;0.65;;;;;;;27.86;34.79;98917.38;5029968;28;20091;-81
2021/07/24 07:33:17;;;;;;;0.80;0.40;;;;;;;27.84;35.27;98914.22;5030237;28;20076;-81
2021/07/24 07:35:42;;;;;;;0.00;0.00;;;;;;;27.85;33.64;98915.78;5029941;28;20511;-84
2021/07/24 07:38:08;;;;;;;1.02;0.80;;;;;;;27.73;33.54;98917.75;5029946;28;20037;-83
2021/07/24 07:40:40;;;;;;;0.25;0.25;;;;;;;27.53;31.36;98916.63;5030025;28;20103;-83
2021/07/24 07:43:08;;;;;;;0.50;0.50;;;;;;;27.43;32.82;98923.72;5030166;28;20029;-82
2021/07/24 07:45:34;;;;;;;0.20;0.20;;;;;;;27.31;32.26;98922.09;5029657;28;20106;-82
2021/07/24 07:48:00;;;;;;;0.17;0.17;;;;;;;27.20;32.77;98913.09;5029775;28;20045;-84
2021/07/24 07:50:25;;;;;;;0.20;0.20;;;;;;;27.13;33.08;98922.88;5030115;28;20033;-82
2021/07/24 07:52:50;;;;;;;0.10;0.10;;;;;;;27.06;33.89;98920.16;5030967;28;20544;-83
2021/07/24 07:55:16;;;;;;;0.20;0.20;;;;;;;27.03;32.54;98922.88;5029885;28;20123;-82
2021/07/24 07:57:41;;;;;;;0.10;0.10;;;;;;;26.99;32.67;98926.41;5030091;28;20064;-81
2021/07/24 08:00:08;;;;;;;0.55;0.25;;;;;;;26.95;32.14;98900.13;5030194;28;20034;-81
2021/07/24 08:02:34;;;;;;;2.45;1.02;;;;;;;26.90;30.41;98915.00;5030112;28;20028;-83
2021/07/24 08:05:00;;;;;;;0.10;0.10;;;;;;;26.76;29.97;98917.75;5029733;28;20037;-80
2021/07/24 08:07:25;;;;;;;0.20;0.20;;;;;;;26.74;30.80;98915.34;5030000;28;20129;-81
2021/07/24 08:09:50;;;;;;;0.63;0.63;;;;;;;26.69;31.19;98921.97;5029603;28;20560;-82
2021/07/24 08:12:16;;;;;;;1.30;0.80;;;;;;;26.63;32.24;98920.03;5029824;28;20527;-81
2021/07/24 08:14:42;;;;;;;0.20;0.20;;;;;;;26.68;32.57;98914.94;5029619;28;20025;-81
2021/07/24 08:17:08;;;;;;;0.50;0.50;;;;;;;26.65;32.48;98912.97;5029872;28;20026;-81
2021/07/24 08:19:34;;;;;;;0.20;0.20;;;;;;;26.70;32.60;98922.78;5031047;28;20033;-80
2021/07/24 08:21:59;;;;;;;0.75;0.75;;;;;;;26.74;32.53;98906.34;5029551;28;20022;-81
2021/07/24 08:24:24;;;;;;;0.88;0.88;;;;;;;26.67;32.14;98907.91;5029466;28;20037;-82
2021/07/24 08:26:50;;;;;;;0.60;0.60;;;;;;;26.70;32.61;98925.53;5029555;28;20540;-81
2021/07/24 08:29:15;;;;;;;0.20;0.20;;;;;;;26.64;33.01;98914.13;5029636;28;20053;-81
2021/07/24 08:31:41;;;;;;;0.40;0.40;;;;;;;26.65;33.06;98907.50;5029778;28;20392;-83
2021/07/24 08:34:06;;;;;;;1.08;1.08;;;;;;;26.72;33.09;98914.97;5029250;28;20082;-81
2021/07/24 08:36:31;;;;;;;0.43;0.43;;;;;;;26.72;32.41;98911.41;5029581;28;20120;-82
2021/07/24 08:38:57;;;;;;;0.82;0.68;;;;;;;26.75;32.40;98905.19;5029460;28;20033;-82
2021/07/24 08:41:22;;;;;;;0.03;0.03;;;;;;;26.73;32.36;98919.25;5029314;28;20026;-80
2021/07/24 08:43:48;;;;;;;0.73;0.73;;;;;;;26.59;32.84;98903.56;5029424;28;20603;-80
2021/07/24 08:46:13;;;;;;;0.63;0.63;;;;;;;26.59;33.04;98906.31;5029245;28;20038;-81
2021/07/24 08:48:39;;;;;;;0.73;0.73;;;;;;;26.62;32.77;98904.72;5029295;28;20033;-82
2021/07/24 08:51:05;;;;;;;0.85;0.85;;;;;;;26.62;32.96;98891.03;5029336;28;20030;-81
2021/07/24 08:53:34;;;;;;;0.10;0.10;;;;;;;26.65;33.26;98893.78;5029506;28;20477;-82
2021/07/24 08:56:13;;;;;;;0.25;0.25;;;;;;;26.66;33.02;98911.03;5029886;28;20037;-82
2021/07/24 08:58:41;;;;;;;1.45;0.73;;;;;;;26.66;32.99;98913.78;5032957;28;20026;-79
2021/07/24 09:01:10;;;;;;;1.02;0.55;;;;;;;26.66;33.17;98891.84;5032837;28;20037;-82
2021/07/24 09:03:37;;;;;;;0.20;0.20;;;;;;;26.77;33.04;98889.91;5032790;28;20025;-80
2021/07/24 09:06:03;;;;;;;0.22;0.22;;;;;;;26.82;33.32;98886.78;5032982;28;20493;-81
2021/07/24 09:08:28;;;;;;;0.10;0.10;;;;;;;26.97;33.14;98892.28;5032900;28;20053;-83
2021/07/24 09:10:54;;;;;;;0.73;0.65;;;;;;;26.92;32.63;98893.47;5032749;28;20481;-80
2021/07/24 09:13:20;;;;;;;0.68;0.68;;;;;;;26.89;32.64;98886.03;5032829;28;20033;-83
2021/07/24 09:15:45;;;;;;;0.32;0.32;;;;;;;26.93;32.65;98886.03;5032839;28;20470;-81
2021/07/24 09:18:11;;;;;;;0.50;0.50;;;;;;;26.98;30.39;98889.16;5034004;28;20037;-81
2021/07/24 09:20:37;;;;;;;0.90;0.50;;;;;;;27.07;31.50;98901.72;5032703;28;20481;-81
2021/07/24 09:23:28;;;;;;;0.30;0.30;;;;;;;27.10;31.57;98896.22;5032499;28;20465;-82
2021/07/24 09:25:54;;;;;;;0.98;0.98;;;;;;;26.99;31.68;98890.72;5032221;28;20046;-82
2021/07/24 09:28:19;;;;;;;0.50;0.28;;;;;;;26.99;32.05;98882.50;5032512;28;20386;-84
2021/07/24 09:30:45;;;;;;;0.00;0.00;;;;;;;27.01;32.14;98898.56;5032425;28;20026;-80
2021/07/24 09:33:15;;;;;;;0.30;0.30;;;;;;;26.92;32.41;98881.72;5032848;28;20548;-82
2021/07/24 09:35:42;;;;;;;0.08;0.08;;;;;;;26.91;32.24;98889.13;5032558;28;20026;-83
2021/07/24 09:38:32;;;;;;;0.50;0.50;;;;;;;26.94;31.72;98874.66;5032111;28;20045;-80
2021/07/24 09:41:00;;;;;;;0.10;0.10;;;;;;;27.00;31.61;98881.31;5032345;28;20025;-82
2021/07/24 09:43:39;;;;;;;0.40;0.40;;;;;;;27.05;31.49;98876.59;5034792;28;20032;-81
2021/07/24 09:46:13;;;;;;;0.20;0.20;;;;;;;27.11;31.96;98870.34;5033047;28;20396;-81
2021/07/24 09:48:43;;;;;;;0.00;0.00;;;;;;;27.14;31.46;98883.28;5032820;28;20030;-81
2021/07/24 09:51:09;;;;;;;0.10;0.10;;;;;;;27.15;31.39;98876.59;5032229;28;20025;-82
2021/07/24 09:53:43;;;;;;;0.22;0.22;;;;;;;27.15;31.97;98865.63;5032171;28;20033;-82
2021/07/24 09:56:17;;;;;;;0.52;0.52;;;;;;;27.23;31.84;98880.13;5032344;28;20071;-82
2021/07/24 09:58:43;;;;;;;0.10;0.10;;;;;;;27.30;32.09;98869.16;5032627;28;20029;-82
2021/07/24 10:01:17;;;;;;;0.35;0.35;;;;;;;27.30;32.07;98860.91;5032149;28;20121;-82
2021/07/24 10:03:47;;;;;;;0.30;0.25;;;;;;;27.39;31.68;98860.53;5032382;28;20527;-83
2021/07/24 10:06:14;;;;;;;0.40;0.40;;;;;;;27.43;32.11;98869.56;5032119;28;20040;-81
2021/07/24 10:08:42;;;;;;;0.88;0.88;;;;;;;27.45;31.82;98875.44;5030872;28;20025;-82
2021/07/24 10:11:07;;;;;;;0.63;0.63;;;;;;;27.45;31.43;98866.41;5031771;28;20468;-81
2021/07/24 10:13:33;;;;;;;0.43;0.28;;;;;;;27.46;31.05;98870.72;5032032;28;20030;-80
2021/07/24 10:15:59;;;;;;;0.05;0.05;;;;;;;27.38;31.30;98858.16;5031481;28;20404;-81
2021/07/24 10:18:26;;;;;;;0.10;0.10;;;;;;;27.45;31.64;98867.22;5031192;28;20072;-81
2021/07/24 10:20:51;;;;;;;0.40;0.40;;;;;;;27.37;31.51;98862.06;5031458;28;20031;-81
2021/07/24 10:23:21;;;;;;;0.40;0.13;;;;;;;27.31;31.65;98867.97;5031554;28;20029;-81
2021/07/24 10:26:08;;;;;;;0.90;0.20;;;;;;;27.35;31.37;98851.50;5031884;28;20574;-82
2021/07/24 10:28:41;;;;;;;0.38;0.38;;;;;;;27.37;31.30;98860.13;5032903;28;20029;-80
2021/07/24 10:31:14;;;;;;;0.13;0.13;;;;;;;27.38;30.50;98858.16;5031411;28;20575;-82
2021/07/24 10:33:41;;;;;;;0.22;0.22;;;;;;;27.36;31.27;98855.81;5031617;28;20113;-83
2021/07/24 10:36:11;;;;;;;0.20;0.20;;;;;;;27.32;30.60;98849.56;5032288;28;20029;-82
2021/07/24 10:38:37;;;;;;;0.20;0.17;;;;;;;27.36;30.54;98841.31;5032259;28;20067;-83
2021/07/24 10:41:25;;;;;;;0.40;0.40;;;;;;;27.45;30.21;98850.75;5031840;28;20033;-82
2021/07/24 10:44:00;;;;;;;0.25;0.25;;;;;;;27.41;29.65;98841.69;5032081;28;20105;-80
2021/07/24 10:46:40;;;;;;;0.28;0.28;;;;;;;27.44;30.04;98837.38;5031027;28;20060;-79
2021/07/24 10:49:06;;;;;;;0.10;0.10;;;;;;;27.47;29.88;98851.09;5030970;28;20029;-79
2021/07/24 10:51:56;;;;;;;0.10;0.10;;;;;;;27.54;29.78;98853.06;5030854;28;20068;-81
2021/07/24 10:54:26;;;;;;;0.93;0.93;;;;;;;27.56;29.72;98844.44;5030994;28;20033;-84
2021/07/24 10:56:52;;;;;;;1.10;1.05;;;;;;;27.55;29.65;98840.91;5030685;28;20032;-80
2021/07/24 10:59:24;;;;;;;0.22;0.22;;;;;;;27.52;30.14;98843.66;5031019;28;20480;-83
2021/07/24 11:02:00;;;;;;;0.50;0.50;;;;;;;27.60;29.92;98856.97;5030950;28;20116;-80
2021/07/24 11:04:35;;;;;;;0.63;0.63;;;;;;;27.55;29.46;98856.59;5032229;28;20025;-80
2021/07/24 11:07:12;;;;;;;0.20;0.20;;;;;;;27.53;29.97;98826.00;5030691;28;20026;-81
2021/07/24 11:09:38;;;;;;;;;;;;;;;27.61;31.08;98831.09;5031139;28;20103;-81
2021/07/24 11:12:06;;;;;;;0.13;0.10;;;;;;;27.78;30.48;98825.91;5030364;28;20360;-81
2021/07/24 11:14:38;;;;;;;0.00;0.00;;;;;;;27.83;29.92;98820.03;5030609;28;20091;-80
2021/07/24 11:17:03;;;;;;;0.32;0.30;;;;;;;27.93;29.23;98821.94;5030277;28;20058;-80
2021/07/24 11:19:28;;;;;;;0.00;0.00;;;;;;;27.86;29.63;98832.97;5030342;28;20424;-79
2021/07/24 11:22:19;;;;;;;0.20;0.20;;;;;;;27.91;29.22;98829.00;5030228;28;20396;-82
2021/07/24 11:24:51;;;;;;;0.10;0.10;;;;;;;27.93;29.72;98816.44;5030086;28;20529;-81
2021/07/24 11:27:27;;;;;;;0.25;0.25;;;;;;;27.96;30.14;98812.91;5030424;28;20030;-82
2021/07/24 11:30:13;;;;;;;0.17;0.17;;;;;;;27.96;29.09;98820.34;5030156;28;20524;-79
2021/07/24 11:32:40;;;;;;;0.20;0.20;;;;;;;27.95;29.38;98808.59;5029655;28;20121;-81
2021/07/24 11:35:12;;;;;;;0.60;0.60;;;;;;;27.94;29.24;98837.25;5029947;28;20032;-79
2021/07/24 11:37:43;;;;;;;1.45;1.35;;;;;;;27.83;29.08;98822.78;5030042;28;20037;-79